sensor_id;sensor_type;location;lat;lon;timestamp;P1;durP1;ratioP1;P2;durP2;ratioP2
66702;SDS011;60933;46.398;-63.798;2024-01-07T00:00:04;0.75;;;0.32;;
66702;SDS011;60933;46.398;-63.798;2024-01-07T00:02:33;1.10;;;0.20;;
66702;SDS011;60933;46.398;-63.798;2024-01-07T00:05:02;0.90;;;0.20;;
66702;SDS011;60933;46.398;-63.798;2024-01-07T00:07:30;1.38;;;0.30;;
66702;SDS011;60933;46.398;-63.798;2024-01-07T00:09:58;1.63;;;0.35;;
66702;SDS011;60933;46.398;-63.798;2024-01-07T00:12:27;1.67;;;0.40;;
66702;SDS011;60933;46.398;-63.798;2024-01-07T00:14:55;2.58;;;0.30;;
66702;SDS011;60933;46.398;-63.798;2024-01-07T00:17:24;0.52;;;0.28;;
66702;SDS011;60933;46.398;-63.798;2024-01-07T00:19:53;4.55;;;0.20;;
66702;SDS011;60933;46.398;-63.798;2024-01-07T00:22:24;0.95;;;0.43;;
66702;SDS011;60933;46.398;-63.798;2024-01-07T00:24:52;0.85;;;0.30;;
66702;SDS011;60933;46.398;-63.798;2024-01-07T00:27:23;1.30;;;0.52;;
66702;SDS011;60933;46.398;-63.798;2024-01-07T00:29:51;0.77;;;0.22;;
66702;SDS011;60933;46.398;-63.798;2024-01-07T00:32:19;0.35;;;0.13;;
66702;SDS011;60933;46.398;-63.798;2024-01-07T00:34:47;1.25;;;0.38;;
66702;SDS011;60933;46.398;-63.798;2024-01-07T00:37:19;1.15;;;0.32;;
66702;SDS011;60933;46.398;-63.798;2024-01-07T00:39:47;1.35;;;0.28;;
66702;SDS011;60933;46.398;-63.798;2024-01-07T00:42:17;4.05;;;0.50;;
66702;SDS011;60933;46.398;-63.798;2024-01-07T00:44:46;4.95;;;0.40;;
66702;SDS011;60933;46.398;-63.798;2024-01-07T00:47:15;0.57;;;0.57;;
66702;SDS011;60933;46.398;-63.798;2024-01-07T00:49:43;1.38;;;0.52;;
66702;SDS011;60933;46.398;-63.798;2024-01-07T00:52:20;2.05;;;0.43;;
66702;SDS011;60933;46.398;-63.798;2024-01-07T00:54:50;1.02;;;0.22;;
66702;SDS011;60933;46.398;-63.798;2024-01-07T00:57:22;0.98;;;0.40;;
66702;SDS011;60933;46.398;-63.798;2024-01-07T00:59:51;2.47;;;0.55;;
66702;SDS011;60933;46.398;-63.798;2024-01-07T01:02:20;1.25;;;0.30;;
66702;SDS011;60933;46.398;-63.798;2024-01-07T01:04:48;2.10;;;0.52;;
66702;SDS011;60933;46.398;-63.798;2024-01-07T01:07:17;1.77;;;0.50;;
66702;SDS011;60933;46.398;-63.798;2024-01-07T01:09:46;1.30;;;0.40;;
66702;SDS011;60933;46.398;-63.798;2024-01-07T01:12:16;0.68;;;0.30;;
66702;SDS011;60933;46.398;-63.798;2024-01-07T01:14:55;3.30;;;0.65;;
66702;SDS011;60933;46.398;-63.798;2024-01-07T01:17:24;2.15;;;0.70;;
66702;SDS011;60933;46.398;-63.798;2024-01-07T01:19:53;2.03;;;0.30;;
66702;SDS011;60933;46.398;-63.798;2024-01-07T01:22:21;1.73;;;0.73;;
66702;SDS011;60933;46.398;-63.798;2024-01-07T01:24:50;1.27;;;0.50;;
66702;SDS011;60933;46.398;-63.798;2024-01-07T01:27:21;1.08;;;0.40;;
66702;SDS011;60933;46.398;-63.798;2024-01-07T01:29:49;1.05;;;0.40;;
66702;SDS011;60933;46.398;-63.798;2024-01-07T01:32:17;0.45;;;0.20;;
66702;SDS011;60933;46.398;-63.798;2024-01-07T01:34:46;2.08;;;0.80;;
66702;SDS011;60933;46.398;-63.798;2024-01-07T01:37:14;2.40;;;1.13;;
66702;SDS011;60933;46.398;-63.798;2024-01-07T01:39:42;1.88;;;0.70;;
66702;SDS011;60933;46.398;-63.798;2024-01-07T01:42:10;2.45;;;0.63;;
66702;SDS011;60933;46.398;-63.798;2024-01-07T01:44:38;1.30;;;0.73;;
66702;SDS011;60933;46.398;-63.798;2024-01-07T01:47:07;2.55;;;1.00;;
66702;SDS011;60933;46.398;-63.798;2024-01-07T01:49:36;2.55;;;0.80;;
66702;SDS011;60933;46.398;-63.798;2024-01-07T01:52:05;1.23;;;0.60;;
66702;SDS011;60933;46.398;-63.798;2024-01-07T01:54:34;1.20;;;0.73;;
66702;SDS011;60933;46.398;-63.798;2024-01-07T01:57:03;4.13;;;0.80;;
66702;SDS011;60933;46.398;-63.798;2024-01-07T01:59:33;1.60;;;1.15;;
66702;SDS011;60933;46.398;-63.798;2024-01-07T02:02:02;6.07;;;2.45;;
66702;SDS011;60933;46.398;-63.798;2024-01-07T02:04:30;2.25;;;1.15;;
66702;SDS011;60933;46.398;-63.798;2024-01-07T02:06:58;0.90;;;0.25;;
66702;SDS011;60933;46.398;-63.798;2024-01-07T02:09:27;2.38;;;0.70;;
66702;SDS011;60933;46.398;-63.798;2024-01-07T02:12:03;1.52;;;0.17;;
66702;SDS011;60933;46.398;-63.798;2024-01-07T02:14:33;2.80;;;0.40;;
66702;SDS011;60933;46.398;-63.798;2024-01-07T02:17:03;1.23;;;0.40;;
66702;SDS011;60933;46.398;-63.798;2024-01-07T02:19:31;0.88;;;0.30;;
66702;SDS011;60933;46.398;-63.798;2024-01-07T02:22:06;1.45;;;0.47;;
66702;SDS011;60933;46.398;-63.798;2024-01-07T02:24:34;2.92;;;1.17;;
66702;SDS011;60933;46.398;-63.798;2024-01-07T02:27:02;2.58;;;0.80;;
66702;SDS011;60933;46.398;-63.798;2024-01-07T02:29:31;1.55;;;0.65;;
66702;SDS011;60933;46.398;-63.798;2024-01-07T02:31:59;2.35;;;0.70;;
66702;SDS011;60933;46.398;-63.798;2024-01-07T02:34:27;0.50;;;0.30;;
66702;SDS011;60933;46.398;-63.798;2024-01-07T02:36:55;0.35;;;0.30;;
66702;SDS011;60933;46.398;-63.798;2024-01-07T02:39:23;2.50;;;0.60;;
66702;SDS011;60933;46.398;-63.798;2024-01-07T02:41:51;0.50;;;0.25;;
66702;SDS011;60933;46.398;-63.798;2024-01-07T02:44:19;0.93;;;0.20;;
66702;SDS011;60933;46.398;-63.798;2024-01-07T02:46:47;2.47;;;0.52;;
66702;SDS011;60933;46.398;-63.798;2024-01-07T02:49:16;1.65;;;0.57;;
66702;SDS011;60933;46.398;-63.798;2024-01-07T02:51:44;1.48;;;0.40;;
66702;SDS011;60933;46.398;-63.798;2024-01-07T02:54:16;1.25;;;0.38;;
66702;SDS011;60933;46.398;-63.798;2024-01-07T02:56:44;1.83;;;0.50;;
66702;SDS011;60933;46.398;-63.798;2024-01-07T02:59:13;2.65;;;0.43;;
66702;SDS011;60933;46.398;-63.798;2024-01-07T03:01:41;1.13;;;0.32;;
66702;SDS011;60933;46.398;-63.798;2024-01-07T03:04:10;1.63;;;0.35;;
66702;SDS011;60933;46.398;-63.798;2024-01-07T03:06:39;0.85;;;0.30;;
66702;SDS011;60933;46.398;-63.798;2024-01-07T03:09:08;0.77;;;0.20;;
66702;SDS011;60933;46.398;-63.798;2024-01-07T03:11:40;1.65;;;0.35;;
66702;SDS011;60933;46.398;-63.798;2024-01-07T03:14:09;0.43;;;0.20;;
66702;SDS011;60933;46.398;-63.798;2024-01-07T03:16:37;0.80;;;0.20;;
66702;SDS011;60933;46.398;-63.798;2024-01-07T03:19:05;1.20;;;0.20;;
66702;SDS011;60933;46.398;-63.798;2024-01-07T03:21:34;1.13;;;0.25;;
66702;SDS011;60933;46.398;-63.798;2024-01-07T03:24:02;1.23;;;0.63;;
66702;SDS011;60933;46.398;-63.798;2024-01-07T03:26:30;1.20;;;0.20;;
66702;SDS011;60933;46.398;-63.798;2024-01-07T03:29:00;2.35;;;0.30;;
66702;SDS011;60933;46.398;-63.798;2024-01-07T03:31:29;0.17;;;0.15;;
66702;SDS011;60933;46.398;-63.798;2024-01-07T03:33:58;0.52;;;0.30;;
66702;SDS011;60933;46.398;-63.798;2024-01-07T03:36:26;0.35;;;0.20;;
66702;SDS011;60933;46.398;-63.798;2024-01-07T03:38:54;1.45;;;0.35;;
66702;SDS011;60933;46.398;-63.798;2024-01-07T03:41:22;0.40;;;0.25;;
66702;SDS011;60933;46.398;-63.798;2024-01-07T03:43:50;0.73;;;0.50;;
66702;SDS011;60933;46.398;-63.798;2024-01-07T03:46:20;3.20;;;0.45;;
66702;SDS011;60933;46.398;-63.798;2024-01-07T03:48:48;0.68;;;0.30;;
66702;SDS011;60933;46.398;-63.798;2024-01-07T03:51:16;1.00;;;0.22;;
66702;SDS011;60933;46.398;-63.798;2024-01-07T03:53:44;1.13;;;0.32;;
66702;SDS011;60933;46.398;-63.798;2024-01-07T03:56:12;0.82;;;0.70;;
66702;SDS011;60933;46.398;-63.798;2024-01-07T03:58:40;1.70;;;0.65;;
66702;SDS011;60933;46.398;-63.798;2024-01-07T04:01:08;1.80;;;0.90;;
66702;SDS011;60933;46.398;-63.798;2024-01-07T04:03:37;4.22;;;0.95;;
66702;SDS011;60933;46.398;-63.798;2024-01-07T04:06:08;1.42;;;0.40;;
66702;SDS011;60933;46.398;-63.798;2024-01-07T04:08:37;0.50;;;0.32;;
66702;SDS011;60933;46.398;-63.798;2024-01-07T04:11:05;0.65;;;0.43;;
66702;SDS011;60933;46.398;-63.798;2024-01-07T04:13:33;0.73;;;0.40;;
66702;SDS011;60933;46.398;-63.798;2024-01-07T04:16:01;1.67;;;0.20;;
66702;SDS011;60933;46.398;-63.798;2024-01-07T04:18:29;2.03;;;0.40;;
66702;SDS011;60933;46.398;-63.798;2024-01-07T04:20:57;6.25;;;1.63;;
66702;SDS011;60933;46.398;-63.798;2024-01-07T04:23:25;7.82;;;1.30;;
66702;SDS011;60933;46.398;-63.798;2024-01-07T04:25:53;4.47;;;1.15;;
66702;SDS011;60933;46.398;-63.798;2024-01-07T04:28:21;6.18;;;0.95;;
66702;SDS011;60933;46.398;-63.798;2024-01-07T04:30:49;13.32;;;1.85;;
66702;SDS011;60933;46.398;-63.798;2024-01-07T04:33:17;9.32;;;1.48;;
66702;SDS011;60933;46.398;-63.798;2024-01-07T04:35:45;3.80;;;1.42;;
66702;SDS011;60933;46.398;-63.798;2024-01-07T04:38:14;2.47;;;1.08;;
66702;SDS011;60933;46.398;-63.798;2024-01-07T04:40:42;3.63;;;0.70;;
66702;SDS011;60933;46.398;-63.798;2024-01-07T04:43:10;4.25;;;0.43;;
66702;SDS011;60933;46.398;-63.798;2024-01-07T04:45:38;1.85;;;0.52;;
66702;SDS011;60933;46.398;-63.798;2024-01-07T04:48:06;2.80;;;0.93;;
66702;SDS011;60933;46.398;-63.798;2024-01-07T04:50:34;1.60;;;0.68;;
66702;SDS011;60933;46.398;-63.798;2024-01-07T04:53:02;4.10;;;0.90;;
66702;SDS011;60933;46.398;-63.798;2024-01-07T04:55:31;1.67;;;1.10;;
66702;SDS011;60933;46.398;-63.798;2024-01-07T04:57:59;2.03;;;0.60;;
66702;SDS011;60933;46.398;-63.798;2024-01-07T05:00:28;2.13;;;0.47;;
66702;SDS011;60933;46.398;-63.798;2024-01-07T05:02:56;1.95;;;0.85;;
66702;SDS011;60933;46.398;-63.798;2024-01-07T05:05:25;0.32;;;0.20;;
66702;SDS011;60933;46.398;-63.798;2024-01-07T05:07:53;2.13;;;0.32;;
66702;SDS011;60933;46.398;-63.798;2024-01-07T05:10:21;6.25;;;0.88;;
66702;SDS011;60933;46.398;-63.798;2024-01-07T05:12:49;2.38;;;0.82;;
66702;SDS011;60933;46.398;-63.798;2024-01-07T05:15:17;3.47;;;0.60;;
66702;SDS011;60933;46.398;-63.798;2024-01-07T05:17:45;3.47;;;0.98;;
66702;SDS011;60933;46.398;-63.798;2024-01-07T05:20:15;3.63;;;0.55;;
66702;SDS011;60933;46.398;-63.798;2024-01-07T05:22:44;1.48;;;0.30;;
66702;SDS011;60933;46.398;-63.798;2024-01-07T05:25:12;1.95;;;0.50;;
66702;SDS011;60933;46.398;-63.798;2024-01-07T05:27:40;2.65;;;0.55;;
66702;SDS011;60933;46.398;-63.798;2024-01-07T05:30:08;1.58;;;0.73;;
66702;SDS011;60933;46.398;-63.798;2024-01-07T05:32:36;1.85;;;0.57;;
66702;SDS011;60933;46.398;-63.798;2024-01-07T05:35:04;2.85;;;0.50;;
66702;SDS011;60933;46.398;-63.798;2024-01-07T05:37:33;6.45;;;0.82;;
66702;SDS011;60933;46.398;-63.798;2024-01-07T05:40:00;1.45;;;0.30;;
66702;SDS011;60933;46.398;-63.798;2024-01-07T05:42:29;2.80;;;0.95;;
66702;SDS011;60933;46.398;-63.798;2024-01-07T05:44:57;1.42;;;0.43;;
66702;SDS011;60933;46.398;-63.798;2024-01-07T05:47:25;0.60;;;0.30;;
66702;SDS011;60933;46.398;-63.798;2024-01-07T05:49:53;0.50;;;0.20;;
66702;SDS011;60933;46.398;-63.798;2024-01-07T05:52:21;1.80;;;0.57;;
66702;SDS011;60933;46.398;-63.798;2024-01-07T05:54:49;0.77;;;0.35;;
66702;SDS011;60933;46.398;-63.798;2024-01-07T05:57:17;1.48;;;0.30;;
66702;SDS011;60933;46.398;-63.798;2024-01-07T05:59:45;1.02;;;0.60;;
66702;SDS011;60933;46.398;-63.798;2024-01-07T06:02:17;1.38;;;0.60;;
66702;SDS011;60933;46.398;-63.798;2024-01-07T06:04:46;3.88;;;0.80;;
66702;SDS011;60933;46.398;-63.798;2024-01-07T06:07:14;1.35;;;0.43;;
66702;SDS011;60933;46.398;-63.798;2024-01-07T06:09:42;1.25;;;0.50;;
66702;SDS011;60933;46.398;-63.798;2024-01-07T06:12:10;2.10;;;0.30;;
66702;SDS011;60933;46.398;-63.798;2024-01-07T06:14:38;1.70;;;0.63;;
66702;SDS011;60933;46.398;-63.798;2024-01-07T06:17:06;1.05;;;0.43;;
66702;SDS011;60933;46.398;-63.798;2024-01-07T06:19:34;0.60;;;0.30;;
66702;SDS011;60933;46.398;-63.798;2024-01-07T06:22:03;0.77;;;0.28;;
66702;SDS011;60933;46.398;-63.798;2024-01-07T06:24:31;2.03;;;0.43;;
66702;SDS011;60933;46.398;-63.798;2024-01-07T06:26:59;3.20;;;0.40;;
66702;SDS011;60933;46.398;-63.798;2024-01-07T06:29:27;2.70;;;0.50;;
66702;SDS011;60933;46.398;-63.798;2024-01-07T06:31:55;0.38;;;0.20;;
66702;SDS011;60933;46.398;-63.798;2024-01-07T06:34:23;0.40;;;0.30;;
66702;SDS011;60933;46.398;-63.798;2024-01-07T06:36:51;1.38;;;0.40;;
66702;SDS011;60933;46.398;-63.798;2024-01-07T06:39:20;0.93;;;0.40;;
66702;SDS011;60933;46.398;-63.798;2024-01-07T06:41:48;1.95;;;0.30;;
66702;SDS011;60933;46.398;-63.798;2024-01-07T06:44:16;1.05;;;0.30;;
66702;SDS011;60933;46.398;-63.798;2024-01-07T06:46:44;4.18;;;1.35;;
66702;SDS011;60933;46.398;-63.798;2024-01-07T06:49:12;0.95;;;0.85;;
66702;SDS011;60933;46.398;-63.798;2024-01-07T06:51:41;3.95;;;0.93;;
66702;SDS011;60933;46.398;-63.798;2024-01-07T06:54:09;0.40;;;0.30;;
66702;SDS011;60933;46.398;-63.798;2024-01-07T06:56:40;1.30;;;0.40;;
66702;SDS011;60933;46.398;-63.798;2024-01-07T06:59:08;1.10;;;0.40;;
66702;SDS011;60933;46.398;-63.798;2024-01-07T07:01:37;0.20;;;0.10;;
66702;SDS011;60933;46.398;-63.798;2024-01-07T07:04:05;0.95;;;0.43;;
66702;SDS011;60933;46.398;-63.798;2024-01-07T07:06:34;2.33;;;0.75;;
66702;SDS011;60933;46.398;-63.798;2024-01-07T07:09:02;3.22;;;0.63;;
66702;SDS011;60933;46.398;-63.798;2024-01-07T07:11:30;2.38;;;0.63;;
66702;SDS011;60933;46.398;-63.798;2024-01-07T07:13:59;0.88;;;0.65;;
66702;SDS011;60933;46.398;-63.798;2024-01-07T07:16:27;1.70;;;0.68;;
66702;SDS011;60933;46.398;-63.798;2024-01-07T07:18:55;1.20;;;0.35;;
66702;SDS011;60933;46.398;-63.798;2024-01-07T07:21:23;6.63;;;0.82;;
66702;SDS011;60933;46.398;-63.798;2024-01-07T07:23:51;4.55;;;0.63;;
66702;SDS011;60933;46.398;-63.798;2024-01-07T07:26:19;0.70;;;0.35;;
66702;SDS011;60933;46.398;-63.798;2024-01-07T07:28:47;2.45;;;1.20;;
66702;SDS011;60933;46.398;-63.798;2024-01-07T07:31:15;0.65;;;0.38;;
66702;SDS011;60933;46.398;-63.798;2024-01-07T07:33:43;0.88;;;0.20;;
66702;SDS011;60933;46.398;-63.798;2024-01-07T07:36:12;0.93;;;0.43;;
66702;SDS011;60933;46.398;-63.798;2024-01-07T07:38:40;1.08;;;0.30;;
66702;SDS011;60933;46.398;-63.798;2024-01-07T07:41:08;0.30;;;0.20;;
66702;SDS011;60933;46.398;-63.798;2024-01-07T07:43:36;1.35;;;0.40;;
66702;SDS011;60933;46.398;-63.798;2024-01-07T07:46:05;1.63;;;0.52;;
66702;SDS011;60933;46.398;-63.798;2024-01-07T07:48:33;0.77;;;0.22;;
66702;SDS011;60933;46.398;-63.798;2024-01-07T07:51:01;0.40;;;0.30;;
66702;SDS011;60933;46.398;-63.798;2024-01-07T07:53:29;0.88;;;0.43;;
66702;SDS011;60933;46.398;-63.798;2024-01-07T07:55:57;1.20;;;0.55;;
66702;SDS011;60933;46.398;-63.798;2024-01-07T07:58:26;2.22;;;0.73;;
66702;SDS011;60933;46.398;-63.798;2024-01-07T08:00:54;1.30;;;0.52;;
66702;SDS011;60933;46.398;-63.798;2024-01-07T08:03:22;0.45;;;0.40;;
66702;SDS011;60933;46.398;-63.798;2024-01-07T08:05:50;1.65;;;0.40;;
66702;SDS011;60933;46.398;-63.798;2024-01-07T08:08:18;0.57;;;0.50;;
66702;SDS011;60933;46.398;-63.798;2024-01-07T08:10:46;1.63;;;0.52;;
66702;SDS011;60933;46.398;-63.798;2024-01-07T08:13:15;1.40;;;0.25;;
66702;SDS011;60933;46.398;-63.798;2024-01-07T08:15:43;1.23;;;0.70;;
66702;SDS011;60933;46.398;-63.798;2024-01-07T08:18:11;0.40;;;0.20;;
66702;SDS011;60933;46.398;-63.798;2024-01-07T08:20:39;0.20;;;0.20;;
66702;SDS011;60933;46.398;-63.798;2024-01-07T08:23:08;1.30;;;0.20;;
66702;SDS011;60933;46.398;-63.798;2024-01-07T08:25:37;0.10;;;0.10;;
66702;SDS011;60933;46.398;-63.798;2024-01-07T08:28:05;0.40;;;0.10;;
66702;SDS011;60933;46.398;-63.798;2024-01-07T08:30:33;2.15;;;0.30;;
66702;SDS011;60933;46.398;-63.798;2024-01-07T08:33:01;0.30;;;0.30;;
66702;SDS011;60933;46.398;-63.798;2024-01-07T08:35:29;0.65;;;0.20;;
66702;SDS011;60933;46.398;-63.798;2024-01-07T08:37:57;0.30;;;0.20;;
66702;SDS011;60933;46.398;-63.798;2024-01-07T08:40:26;0.45;;;0.20;;
66702;SDS011;60933;46.398;-63.798;2024-01-07T08:42:53;0.85;;;0.47;;
66702;SDS011;60933;46.398;-63.798;2024-01-07T08:45:22;0.85;;;0.22;;
66702;SDS011;60933;46.398;-63.798;2024-01-07T08:47:50;1.00;;;0.30;;
66702;SDS011;60933;46.398;-63.798;2024-01-07T08:50:18;1.65;;;0.25;;
66702;SDS011;60933;46.398;-63.798;2024-01-07T08:52:46;5.78;;;0.20;;
66702;SDS011;60933;46.398;-63.798;2024-01-07T08:55:14;0.73;;;0.38;;
66702;SDS011;60933;46.398;-63.798;2024-01-07T08:57:43;1.15;;;0.43;;
66702;SDS011;60933;46.398;-63.798;2024-01-07T09:00:12;1.85;;;0.38;;
66702;SDS011;60933;46.398;-63.798;2024-01-07T09:02:40;0.63;;;0.30;;
66702;SDS011;60933;46.398;-63.798;2024-01-07T09:05:10;2.00;;;0.40;;
66702;SDS011;60933;46.398;-63.798;2024-01-07T09:07:39;0.85;;;0.20;;
66702;SDS011;60933;46.398;-63.798;2024-01-07T09:10:07;1.40;;;0.10;;
66702;SDS011;60933;46.398;-63.798;2024-01-07T09:12:40;0.20;;;0.10;;
66702;SDS011;60933;46.398;-63.798;2024-01-07T09:15:08;0.43;;;0.20;;
66702;SDS011;60933;46.398;-63.798;2024-01-07T09:17:37;1.00;;;0.20;;
66702;SDS011;60933;46.398;-63.798;2024-01-07T09:20:08;0.22;;;0.10;;
66702;SDS011;60933;46.398;-63.798;2024-01-07T09:22:37;1.63;;;0.30;;
66702;SDS011;60933;46.398;-63.798;2024-01-07T09:25:06;0.20;;;0.10;;
66702;SDS011;60933;46.398;-63.798;2024-01-07T09:27:34;0.30;;;0.20;;
66702;SDS011;60933;46.398;-63.798;2024-01-07T09:30:02;0.20;;;0.10;;
66702;SDS011;60933;46.398;-63.798;2024-01-07T09:32:31;0.25;;;0.20;;
66702;SDS011;60933;46.398;-63.798;2024-01-07T09:35:03;0.30;;;0.17;;
66702;SDS011;60933;46.398;-63.798;2024-01-07T09:37:33;0.10;;;0.10;;
66702;SDS011;60933;46.398;-63.798;2024-01-07T09:40:02;0.77;;;0.25;;
66702;SDS011;60933;46.398;-63.798;2024-01-07T09:42:34;0.30;;;0.20;;
66702;SDS011;60933;46.398;-63.798;2024-01-07T09:45:02;0.28;;;0.28;;
66702;SDS011;60933;46.398;-63.798;2024-01-07T09:47:34;0.38;;;0.10;;
66702;SDS011;60933;46.398;-63.798;2024-01-07T09:50:03;0.35;;;0.20;;
66702;SDS011;60933;46.398;-63.798;2024-01-07T09:52:32;0.47;;;0.20;;
66702;SDS011;60933;46.398;-63.798;2024-01-07T09:55:02;0.60;;;0.20;;
66702;SDS011;60933;46.398;-63.798;2024-01-07T09:57:33;0.10;;;0.10;;
66702;SDS011;60933;46.398;-63.798;2024-01-07T10:00:01;0.77;;;0.30;;
66702;SDS011;60933;46.398;-63.798;2024-01-07T10:02:29;0.60;;;0.38;;
66702;SDS011;60933;46.398;-63.798;2024-01-07T10:04:57;0.43;;;0.40;;
66702;SDS011;60933;46.398;-63.798;2024-01-07T10:07:25;1.92;;;0.30;;
66702;SDS011;60933;46.398;-63.798;2024-01-07T10:09:53;0.77;;;0.20;;
66702;SDS011;60933;46.398;-63.798;2024-01-07T10:12:23;0.85;;;0.10;;
66702;SDS011;60933;46.398;-63.798;2024-01-07T10:14:51;0.35;;;0.10;;
66702;SDS011;60933;46.398;-63.798;2024-01-07T10:17:19;1.48;;;0.32;;
66702;SDS011;60933;46.398;-63.798;2024-01-07T10:19:51;0.13;;;0.10;;
66702;SDS011;60933;46.398;-63.798;2024-01-07T10:22:19;1.33;;;0.20;;
66702;SDS011;60933;46.398;-63.798;2024-01-07T10:24:47;0.63;;;0.20;;
66702;SDS011;60933;46.398;-63.798;2024-01-07T10:27:16;1.98;;;0.30;;
66702;SDS011;60933;46.398;-63.798;2024-01-07T10:29:46;0.10;;;0.10;;
66702;SDS011;60933;46.398;-63.798;2024-01-07T10:32:19;1.13;;;0.20;;
66702;SDS011;60933;46.398;-63.798;2024-01-07T10:34:47;2.22;;;0.20;;
66702;SDS011;60933;46.398;-63.798;2024-01-07T10:37:16;0.68;;;0.10;;
66702;SDS011;60933;46.398;-63.798;2024-01-07T10:39:44;2.42;;;0.57;;
66702;SDS011;60933;46.398;-63.798;2024-01-07T10:42:12;1.42;;;0.15;;
66702;SDS011;60933;46.398;-63.798;2024-01-07T10:44:41;2.10;;;0.90;;
66702;SDS011;60933;46.398;-63.798;2024-01-07T10:47:10;0.75;;;0.20;;
66702;SDS011;60933;46.398;-63.798;2024-01-07T10:49:42;1.48;;;0.28;;
66702;SDS011;60933;46.398;-63.798;2024-01-07T10:54:43;0.32;;;0.30;;
66702;SDS011;60933;46.398;-63.798;2024-01-07T10:57:27;0.45;;;0.20;;
66702;SDS011;60933;46.398;-63.798;2024-01-07T11:00:15;0.90;;;0.30;;
66702;SDS011;60933;46.398;-63.798;2024-01-07T11:02:51;0.30;;;0.20;;
66702;SDS011;60933;46.398;-63.798;2024-01-07T11:05:42;0.60;;;0.35;;
66702;SDS011;60933;46.398;-63.798;2024-01-07T11:11:05;0.45;;;0.20;;
66702;SDS011;60933;46.398;-63.798;2024-01-07T11:13:45;0.28;;;0.20;;
66702;SDS011;60933;46.398;-63.798;2024-01-07T11:16:13;1.85;;;0.50;;
66702;SDS011;60933;46.398;-63.798;2024-01-07T11:19:08;1.02;;;0.17;;
66702;SDS011;60933;46.398;-63.798;2024-01-07T11:21:40;1.02;;;0.40;;
66702;SDS011;60933;46.398;-63.798;2024-01-07T11:24:08;1.42;;;0.32;;
66702;SDS011;60933;46.398;-63.798;2024-01-07T11:26:36;0.40;;;0.35;;
66702;SDS011;60933;46.398;-63.798;2024-01-07T11:29:04;2.00;;;0.20;;
66702;SDS011;60933;46.398;-63.798;2024-01-07T11:34:08;1.42;;;0.60;;
66702;SDS011;60933;46.398;-63.798;2024-01-07T11:36:36;1.92;;;0.45;;
66702;SDS011;60933;46.398;-63.798;2024-01-07T11:39:05;0.70;;;0.20;;
66702;SDS011;60933;46.398;-63.798;2024-01-07T11:41:36;1.33;;;0.30;;
66702;SDS011;60933;46.398;-63.798;2024-01-07T11:44:07;1.30;;;0.32;;
66702;SDS011;60933;46.398;-63.798;2024-01-07T11:46:38;0.80;;;0.30;;
66702;SDS011;60933;46.398;-63.798;2024-01-07T11:49:06;1.35;;;0.57;;
66702;SDS011;60933;46.398;-63.798;2024-01-07T11:51:36;1.10;;;0.30;;
66702;SDS011;60933;46.398;-63.798;2024-01-07T11:54:05;0.45;;;0.30;;
66702;SDS011;60933;46.398;-63.798;2024-01-07T11:56:34;1.88;;;0.20;;
66702;SDS011;60933;46.398;-63.798;2024-01-07T11:59:02;0.90;;;0.30;;
66702;SDS011;60933;46.398;-63.798;2024-01-07T12:01:30;0.52;;;0.30;;
66702;SDS011;60933;46.398;-63.798;2024-01-07T12:03:58;0.50;;;0.32;;
66702;SDS011;60933;46.398;-63.798;2024-01-07T12:06:27;0.47;;;0.20;;
66702;SDS011;60933;46.398;-63.798;2024-01-07T12:08:55;1.50;;;0.40;;
66702;SDS011;60933;46.398;-63.798;2024-01-07T12:11:23;0.22;;;0.20;;
66702;SDS011;60933;46.398;-63.798;2024-01-07T12:13:51;0.95;;;0.50;;
66702;SDS011;60933;46.398;-63.798;2024-01-07T12:16:20;0.82;;;0.20;;
66702;SDS011;60933;46.398;-63.798;2024-01-07T12:18:48;0.80;;;0.35;;
66702;SDS011;60933;46.398;-63.798;2024-01-07T12:21:19;4.43;;;1.65;;
66702;SDS011;60933;46.398;-63.798;2024-01-07T12:23:50;1.15;;;0.65;;
66702;SDS011;60933;46.398;-63.798;2024-01-07T12:26:19;1.83;;;0.60;;
66702;SDS011;60933;46.398;-63.798;2024-01-07T12:28:55;2.35;;;0.57;;
66702;SDS011;60933;46.398;-63.798;2024-01-07T12:31:27;0.85;;;0.60;;
66702;SDS011;60933;46.398;-63.798;2024-01-07T12:33:55;3.67;;;0.57;;
66702;SDS011;60933;46.398;-63.798;2024-01-07T12:36:24;3.95;;;0.90;;
66702;SDS011;60933;46.398;-63.798;2024-01-07T12:38:53;3.25;;;1.15;;
66702;SDS011;60933;46.398;-63.798;2024-01-07T12:41:21;3.15;;;1.65;;
66702;SDS011;60933;46.398;-63.798;2024-01-07T12:43:50;3.50;;;2.00;;
66702;SDS011;60933;46.398;-63.798;2024-01-07T12:46:18;5.45;;;1.50;;
66702;SDS011;60933;46.398;-63.798;2024-01-07T12:48:47;3.40;;;1.50;;
66702;SDS011;60933;46.398;-63.798;2024-01-07T12:51:15;7.10;;;2.03;;
66702;SDS011;60933;46.398;-63.798;2024-01-07T12:56:15;4.63;;;1.60;;
66702;SDS011;60933;46.398;-63.798;2024-01-07T12:58:43;7.03;;;2.40;;
66702;SDS011;60933;46.398;-63.798;2024-01-07T13:01:12;7.22;;;2.00;;
66702;SDS011;60933;46.398;-63.798;2024-01-07T13:03:41;3.67;;;1.27;;
66702;SDS011;60933;46.398;-63.798;2024-01-07T13:06:10;4.25;;;1.60;;
66702;SDS011;60933;46.398;-63.798;2024-01-07T13:08:38;2.15;;;0.88;;
66702;SDS011;60933;46.398;-63.798;2024-01-07T13:11:06;2.67;;;1.15;;
66702;SDS011;60933;46.398;-63.798;2024-01-07T13:13:36;6.55;;;1.50;;
66702;SDS011;60933;46.398;-63.798;2024-01-07T13:16:04;7.10;;;1.40;;
66702;SDS011;60933;46.398;-63.798;2024-01-07T13:18:32;6.05;;;0.98;;
66702;SDS011;60933;46.398;-63.798;2024-01-07T13:21:01;4.55;;;1.10;;
66702;SDS011;60933;46.398;-63.798;2024-01-07T13:23:29;1.98;;;0.68;;
66702;SDS011;60933;46.398;-63.798;2024-01-07T13:25:59;3.22;;;1.17;;
66702;SDS011;60933;46.398;-63.798;2024-01-07T13:28:33;1.75;;;0.60;;
66702;SDS011;60933;46.398;-63.798;2024-01-07T13:31:01;1.30;;;0.75;;
66702;SDS011;60933;46.398;-63.798;2024-01-07T13:33:30;2.70;;;0.60;;
66702;SDS011;60933;46.398;-63.798;2024-01-07T13:35:59;1.70;;;0.90;;
66702;SDS011;60933;46.398;-63.798;2024-01-07T13:38:27;3.28;;;1.00;;
66702;SDS011;60933;46.398;-63.798;2024-01-07T13:40:55;1.20;;;0.40;;
66702;SDS011;60933;46.398;-63.798;2024-01-07T13:43:24;1.48;;;0.52;;
66702;SDS011;60933;46.398;-63.798;2024-01-07T13:45:56;1.55;;;0.38;;
66702;SDS011;60933;46.398;-63.798;2024-01-07T13:48:24;2.75;;;0.68;;
66702;SDS011;60933;46.398;-63.798;2024-01-07T13:50:53;6.15;;;1.98;;
66702;SDS011;60933;46.398;-63.798;2024-01-07T13:53:21;5.57;;;2.55;;
66702;SDS011;60933;46.398;-63.798;2024-01-07T13:55:49;7.75;;;2.85;;
66702;SDS011;60933;46.398;-63.798;2024-01-07T13:58:18;2.15;;;0.90;;
66702;SDS011;60933;46.398;-63.798;2024-01-07T14:00:50;1.60;;;0.52;;
66702;SDS011;60933;46.398;-63.798;2024-01-07T14:03:22;3.35;;;0.93;;
66702;SDS011;60933;46.398;-63.798;2024-01-07T14:05:50;4.07;;;1.77;;
66702;SDS011;60933;46.398;-63.798;2024-01-07T14:08:19;4.75;;;1.42;;
66702;SDS011;60933;46.398;-63.798;2024-01-07T14:10:47;6.60;;;1.88;;
66702;SDS011;60933;46.398;-63.798;2024-01-07T14:13:15;6.13;;;1.98;;
66702;SDS011;60933;46.398;-63.798;2024-01-07T14:15:44;4.40;;;1.95;;
66702;SDS011;60933;46.398;-63.798;2024-01-07T14:18:12;5.38;;;1.23;;
66702;SDS011;60933;46.398;-63.798;2024-01-07T14:20:43;5.25;;;1.23;;
66702;SDS011;60933;46.398;-63.798;2024-01-07T14:23:11;3.53;;;1.20;;
66702;SDS011;60933;46.398;-63.798;2024-01-07T14:25:39;2.75;;;1.00;;
66702;SDS011;60933;46.398;-63.798;2024-01-07T14:28:08;6.75;;;1.35;;
66702;SDS011;60933;46.398;-63.798;2024-01-07T14:30:37;2.13;;;0.93;;
66702;SDS011;60933;46.398;-63.798;2024-01-07T14:33:05;2.85;;;0.82;;
66702;SDS011;60933;46.398;-63.798;2024-01-07T14:35:34;2.08;;;0.90;;
66702;SDS011;60933;46.398;-63.798;2024-01-07T14:38:02;5.38;;;0.80;;
66702;SDS011;60933;46.398;-63.798;2024-01-07T14:40:34;1.55;;;0.80;;